Aviation Digital Data Service (ADDS)

Output produced by METARs form (1925 UTC 18 June 2019)
found at http://www.aviationweather.gov/metar/data/
 
VGEG 181600Z 00000 4000 RA SCT009 FEW028CB OVC080 30/27 Q1002 NOSIG
TAF VGEG 181700Z 1818/1924 16004KT 4000 DZ SCT016 BKN100 
     TEMPO 1821/1904 20020G30KT 2000 RA/TSRA SCT007 FEW025CB BKN090 
     BECMG 1906/1908 22010KT 5000 HZ SCT018 SCT100 
     BECMG 1912/1914 18006KT 4000 DZ/HZ SCT016 BKN100